ESSV/VBY METAR and TAF weather

Enter ICAO airport designator
Station Type Date Time Source
ESSV METAR 2018/12/13 00:20 UTC NOAA

ESSV 130020Z AUTO 06006KT 9999 FEW017/// SCT026/// OVC043/// 01/M00 Q1030


Station Type Date Time Source
ESSV Decoded METAR 2018/12/13 00:20 UTC NOAA

Visby Flygplats, Sweden (ESSV) 57-40N 018-21E 47M
Dec 12, 2018 - 07:20 PM EST / 2018.12.13 0020 UTC
Wind: from the ENE (060 degrees) at 7 MPH (6 KT):0
Visibility: greater than 7 mile(s):0
Sky conditions: overcast
Temperature: 33 F (1 C)
Windchill: 26 F (-3 C):1
Dew Point: 32 F (0 C)
Relative Humidity: 93%
Pressure (altimeter): 30.42 in. Hg (1030 hPa)
ob: ESSV 130020Z AUTO 06006KT 9999 FEW017/// SCT026/// OVC043/// 01/M00 Q1030
cycle: 0

Station Type Date Time Source
ESSV TAF 2017/09/20 09:39 UTC NOAA

TAF COR TAF COR ESSV 200840Z 2009/2021 10005KT 9999 BKN030 PROB40 2009/2016 4000 TS SHRA BKN015CB


Example: see airport list